createdAt,value
2023-02-09T00:00:17.732Z,2.83
2023-02-09T00:02:47.352Z,2.67
2023-02-09T00:05:16.809Z,3.10
2023-02-09T00:07:46.245Z,2.77
2023-02-09T00:10:15.707Z,4.93
2023-02-09T00:13:02.903Z,3.53
2023-02-09T00:15:32.336Z,3.83
2023-02-09T00:18:01.806Z,2.67
2023-02-09T00:20:31.238Z,3.30
2023-02-09T00:23:00.725Z,3.27
2023-02-09T00:25:30.149Z,2.77
2023-02-09T00:28:00.052Z,3.83
2023-02-09T00:30:29.670Z,2.83
2023-02-09T00:32:59.122Z,2.63
2023-02-09T00:35:28.582Z,2.03
2023-02-09T00:37:58.014Z,2.70
2023-02-09T00:40:27.446Z,5.07
2023-02-09T00:42:57.277Z,2.97
2023-02-09T00:45:26.921Z,2.50
2023-02-09T00:47:56.645Z,3.17
2023-02-09T00:50:26.387Z,3.30
2023-02-09T00:52:56.538Z,3.00
2023-02-09T00:55:26.151Z,2.63
2023-02-09T00:57:55.607Z,3.37
2023-02-09T01:00:25.272Z,2.70
2023-02-09T01:02:56.340Z,2.10
2023-02-09T01:05:26.006Z,2.70
2023-02-09T01:07:57.073Z,2.10
2023-02-09T01:10:26.950Z,3.03
2023-02-09T01:12:56.410Z,3.23
2023-02-09T01:15:25.912Z,3.07
2023-02-09T01:17:55.393Z,3.00
2023-02-09T01:20:24.883Z,3.23
2023-02-09T01:22:54.348Z,2.03
2023-02-09T01:25:23.778Z,2.60
2023-02-09T01:27:53.599Z,2.87
2023-02-09T01:30:23.011Z,2.20
2023-02-09T01:32:52.463Z,1.53
2023-02-09T01:35:21.916Z,1.73
2023-02-09T01:37:51.365Z,2.50
2023-02-09T01:40:20.807Z,2.23
2023-02-09T01:42:50.262Z,2.30
2023-02-09T01:45:33.100Z,2.07
2023-02-09T01:48:05.012Z,2.33
2023-02-09T01:50:39.493Z,3.80
2023-02-09T01:53:09.641Z,2.10
2023-02-09T01:55:43.841Z,2.37
2023-02-09T01:58:17.884Z,2.70
2023-02-09T02:00:48.700Z,2.30
2023-02-09T02:03:23.176Z,1.77
2023-02-09T02:05:57.239Z,1.80
2023-02-09T02:08:36.787Z,2.47
2023-02-09T02:11:08.154Z,2.33
2023-02-09T02:13:37.744Z,3.03
2023-02-09T02:16:40.184Z,2.47
2023-02-09T02:19:37.938Z,2.23
2023-02-09T02:22:36.572Z,2.40
2023-02-09T02:25:39.376Z,2.37
2023-02-09T02:28:31.139Z,2.37
2023-02-09T02:31:33.723Z,2.30
2023-02-09T02:34:28.109Z,3.33
2023-02-09T02:37:14.104Z,2.37
2023-02-09T02:39:53.648Z,2.73
2023-02-09T02:42:54.570Z,3.87
2023-02-09T02:45:42.947Z,3.13
2023-02-09T02:48:51.570Z,5.63
2023-02-09T02:51:25.638Z,2.60
2023-02-09T02:54:03.263Z,3.20
2023-02-09T02:56:43.226Z,2.37
2023-02-09T02:59:23.456Z,2.40
2023-02-09T03:01:57.955Z,2.63
2023-02-09T03:04:30.793Z,2.30
2023-02-09T03:07:00.242Z,2.57
2023-02-09T03:09:29.698Z,2.43
2023-02-09T03:12:03.755Z,2.47
2023-02-09T03:14:49.647Z,2.00
2023-02-09T03:17:38.772Z,3.37
2023-02-09T03:20:24.546Z,4.53
2023-02-09T03:23:02.465Z,4.17
2023-02-09T03:25:42.770Z,3.67
2023-02-09T03:28:28.985Z,3.10
2023-02-09T03:31:01.064Z,3.30
2023-02-09T03:33:34.683Z,4.30
2023-02-09T03:36:08.329Z,3.83
2023-02-09T03:38:37.864Z,2.73
2023-02-09T03:41:08.140Z,3.30
2023-02-09T03:43:56.219Z,3.50
2023-02-09T03:46:25.774Z,2.97
2023-02-09T03:48:55.244Z,1.93
2023-02-09T03:51:24.860Z,3.17
2023-02-09T03:53:54.391Z,2.83
2023-02-09T03:56:25.051Z,3.00
2023-02-09T03:58:54.792Z,5.03
2023-02-09T04:01:24.226Z,3.53
2023-02-09T04:03:53.687Z,2.97
2023-02-09T04:06:23.197Z,2.70
2023-02-09T04:08:52.652Z,2.77
2023-02-09T04:11:23.466Z,2.97
2023-02-09T04:13:53.393Z,3.40
2023-02-09T04:16:22.905Z,2.70
2023-02-09T04:18:52.713Z,3.13
2023-02-09T04:21:22.787Z,2.33
2023-02-09T04:23:52.243Z,2.37
2023-02-09T04:26:21.819Z,2.23
2023-02-09T04:28:51.563Z,1.87
2023-02-09T04:31:21.278Z,2.77
2023-02-09T04:33:50.849Z,2.23
2023-02-09T04:36:22.005Z,2.20
2023-02-09T04:38:52.033Z,2.47
2023-02-09T04:41:21.586Z,2.10
2023-02-09T04:43:51.918Z,2.60
2023-02-09T04:46:21.730Z,2.60
2023-02-09T04:48:51.285Z,1.60
2023-02-09T04:51:20.696Z,1.60
2023-02-09T04:53:50.215Z,2.20
2023-02-09T04:56:19.654Z,3.07
2023-02-09T04:59:07.098Z,2.17
2023-02-09T05:01:36.623Z,2.47
2023-02-09T05:04:06.167Z,2.20
2023-02-09T05:06:35.616Z,2.27
2023-02-09T05:09:05.234Z,2.17
2023-02-09T05:11:34.680Z,2.30
2023-02-09T05:14:04.126Z,3.87
2023-02-09T05:16:33.635Z,2.87
2023-02-09T05:19:03.092Z,1.90
2023-02-09T05:21:32.532Z,3.00
2023-02-09T05:24:01.996Z,2.43
2023-02-09T05:26:31.453Z,1.93
2023-02-09T05:29:00.898Z,2.07
2023-02-09T05:31:30.497Z,2.33
2023-02-09T05:34:01.081Z,2.13
2023-02-09T05:36:30.556Z,2.20
2023-02-09T05:39:00.015Z,2.87
2023-02-09T05:41:47.488Z,1.70
2023-02-09T05:44:16.934Z,1.90
2023-02-09T05:46:46.380Z,2.50
2023-02-09T05:49:15.996Z,1.40
2023-02-09T05:51:45.461Z,4.10
2023-02-09T05:54:14.979Z,2.67
2023-02-09T05:56:44.900Z,3.27
2023-02-09T05:59:14.759Z,2.87
2023-02-09T06:01:44.294Z,2.40
2023-02-09T06:04:13.815Z,3.10
2023-02-09T06:06:43.429Z,3.17
2023-02-09T06:09:13.221Z,2.53
2023-02-09T06:11:42.656Z,3.83
2023-02-09T06:14:13.090Z,2.43
2023-02-09T06:16:42.533Z,2.53
2023-02-09T06:19:15.827Z,2.33
2023-02-09T06:21:46.172Z,2.37
2023-02-09T06:24:17.161Z,2.03
2023-02-09T06:26:46.622Z,3.53
2023-02-09T06:29:16.141Z,2.00
2023-02-09T06:31:45.723Z,2.63
2023-02-09T06:34:15.344Z,2.57
2023-02-09T06:36:44.794Z,1.97
2023-02-09T06:39:14.251Z,2.10
2023-02-09T06:41:43.702Z,2.37
2023-02-09T06:44:13.811Z,3.40
2023-02-09T06:46:43.316Z,3.30
2023-02-09T06:49:12.786Z,3.47
2023-02-09T06:51:42.304Z,2.90
2023-02-09T06:54:12.041Z,2.50
2023-02-09T06:56:41.466Z,2.83
2023-02-09T06:59:10.931Z,2.70
2023-02-09T07:01:40.399Z,2.27
2023-02-09T07:04:09.849Z,2.00
2023-02-09T07:06:39.286Z,2.00
2023-02-09T07:09:09.280Z,1.90
2023-02-09T07:11:38.744Z,2.80
2023-02-09T07:14:08.175Z,3.47
2023-02-09T07:16:37.645Z,3.50
2023-02-09T07:19:07.142Z,3.20
2023-02-09T07:21:36.601Z,4.43
2023-02-09T07:24:06.369Z,3.07
2023-02-09T07:26:35.950Z,3.37
2023-02-09T07:29:05.826Z,3.63
2023-02-09T07:31:35.494Z,2.70
2023-02-09T07:34:04.978Z,3.30
2023-02-09T07:36:34.422Z,2.90
2023-02-09T07:39:04.166Z,3.93
2023-02-09T07:41:33.685Z,3.00
2023-02-09T07:44:03.211Z,3.60
2023-02-09T07:46:32.817Z,5.63
2023-02-09T07:49:02.385Z,5.23
2023-02-09T07:51:34.089Z,5.63
2023-02-09T07:54:04.126Z,3.47
2023-02-09T07:56:34.151Z,5.23
2023-02-09T07:59:03.613Z,4.77
2023-02-09T08:01:33.643Z,7.53
2023-02-09T08:04:03.133Z,8.57
2023-02-09T08:06:43.204Z,5.60
2023-02-09T08:09:16.790Z,5.10
2023-02-09T08:11:56.844Z,4.20
2023-02-09T08:14:31.239Z,4.07
2023-02-09T08:17:20.533Z,4.03
2023-02-09T08:20:06.227Z,4.93
2023-02-09T08:22:41.667Z,6.20
2023-02-09T08:25:11.974Z,4.33
2023-02-09T08:27:43.317Z,4.30
2023-02-09T08:30:15.252Z,3.00
2023-02-09T08:32:44.796Z,4.20
2023-02-09T08:35:15.044Z,5.33
2023-02-09T08:37:44.468Z,5.13
2023-02-09T08:40:15.234Z,5.17
2023-02-09T08:42:44.642Z,6.47
2023-02-09T08:45:14.100Z,5.70
2023-02-09T08:47:43.529Z,6.00
2023-02-09T08:50:12.997Z,5.53
2023-02-09T08:52:42.612Z,5.90
2023-02-09T08:55:12.376Z,3.93
2023-02-09T08:57:44.341Z,6.00
2023-02-09T09:00:14.212Z,4.43
2023-02-09T09:02:43.789Z,5.80
2023-02-09T09:05:13.304Z,6.27
2023-02-09T09:07:42.755Z,4.90
2023-02-09T09:10:13.001Z,3.37
2023-02-09T09:12:42.434Z,4.20
2023-02-09T09:15:11.966Z,4.20
2023-02-09T09:17:41.400Z,4.17
2023-02-09T09:20:11.483Z,3.63
2023-02-09T09:22:41.061Z,3.07
2023-02-09T09:25:10.843Z,3.40
2023-02-09T09:27:40.294Z,3.43
2023-02-09T09:30:10.346Z,5.00
2023-02-09T09:32:39.942Z,6.23
2023-02-09T09:35:09.660Z,8.47
2023-02-09T09:37:39.110Z,8.17
2023-02-09T09:40:09.134Z,9.90
2023-02-09T09:44:58.228Z,7.90
2023-02-09T09:47:40.339Z,8.77
2023-02-09T09:50:32.379Z,7.90
2023-02-09T09:53:15.390Z,7.03
2023-02-09T09:55:47.388Z,8.80
2023-02-09T09:58:20.524Z,7.37
2023-02-09T10:00:52.321Z,5.73
2023-02-09T10:03:24.101Z,5.87
2023-02-09T10:05:57.456Z,6.87
2023-02-09T10:08:37.329Z,6.90
2023-02-09T10:11:11.537Z,5.47
2023-02-09T10:13:46.137Z,4.70
2023-02-09T10:16:24.940Z,7.43
2023-02-09T10:19:01.656Z,7.10
2023-02-09T10:21:35.978Z,7.00
2023-02-09T10:24:27.496Z,5.93
2023-02-09T10:27:33.478Z,4.57
2023-02-09T10:30:25.713Z,5.70
2023-02-09T10:32:58.290Z,4.10
2023-02-09T10:35:32.337Z,4.77
2023-02-09T10:38:04.635Z,3.73
2023-02-09T10:40:38.319Z,5.30
2023-02-09T10:43:17.676Z,6.10
2023-02-09T10:45:51.651Z,4.50
2023-02-09T10:48:26.156Z,4.80
2023-02-09T10:51:02.687Z,4.17
2023-02-09T10:53:42.683Z,3.87
2023-02-09T10:56:28.786Z,4.37
2023-02-09T10:59:17.656Z,4.10
2023-02-09T11:02:00.450Z,4.93
2023-02-09T11:04:41.751Z,4.17
2023-02-09T11:07:18.752Z,5.17
2023-02-09T11:09:53.063Z,3.60
2023-02-09T11:12:23.088Z,5.30
2023-02-09T11:14:52.471Z,4.80
2023-02-09T11:18:09.130Z,4.43
2023-02-09T11:20:50.056Z,4.13
2023-02-09T11:23:39.035Z,5.73
2023-02-09T11:26:51.558Z,4.10
2023-02-09T11:29:31.115Z,4.03
2023-02-09T11:32:16.820Z,3.90
2023-02-09T11:35:11.350Z,3.63
2023-02-09T11:37:54.414Z,3.20
2023-02-09T11:40:40.127Z,2.77
2023-02-09T11:43:40.814Z,4.33
2023-02-09T11:46:20.906Z,7.67
2023-02-09T11:48:54.988Z,4.63
2023-02-09T11:51:26.974Z,4.10
2023-02-09T11:54:18.808Z,4.20
2023-02-09T11:56:55.850Z,4.60
2023-02-09T11:59:44.330Z,4.20
2023-02-09T12:02:39.543Z,4.13
2023-02-09T12:05:13.148Z,5.27
2023-02-09T12:07:50.127Z,4.80
2023-02-09T12:10:50.636Z,3.80
2023-02-09T12:13:38.169Z,3.77
2023-02-09T12:16:21.337Z,5.50
2023-02-09T12:18:51.262Z,4.67
2023-02-09T12:21:33.702Z,4.57
2023-02-09T12:24:05.112Z,4.63
2023-02-09T12:27:04.535Z,6.47
2023-02-09T12:29:40.853Z,4.90
2023-02-09T12:32:16.962Z,4.73
2023-02-09T12:34:53.082Z,3.90
2023-02-09T12:37:28.994Z,2.97
2023-02-09T12:40:11.603Z,3.50
2023-02-09T12:42:45.138Z,3.70
2023-02-09T12:45:40.154Z,2.97
2023-02-09T12:48:14.244Z,3.50
2023-02-09T12:50:51.346Z,4.27
2023-02-09T12:53:34.761Z,3.90
2023-02-09T12:56:14.559Z,3.10
2023-02-09T12:58:54.517Z,3.60
2023-02-09T13:01:25.612Z,3.50
2023-02-09T13:03:59.740Z,4.00
2023-02-09T13:06:48.642Z,4.73
2023-02-09T13:09:25.140Z,2.77
2023-02-09T13:12:20.096Z,2.97
2023-02-09T13:14:52.546Z,3.87
2023-02-09T13:17:47.294Z,3.67
2023-02-09T13:20:46.944Z,3.00
2023-02-09T13:23:29.476Z,3.97
2023-02-09T13:26:15.349Z,2.60
2023-02-09T13:28:44.863Z,3.20
2023-02-09T13:31:39.893Z,2.77
2023-02-09T13:34:45.810Z,3.73
2023-02-09T13:37:28.870Z,3.03
2023-02-09T13:40:05.441Z,2.70
2023-02-09T13:42:37.560Z,3.10
2023-02-09T13:45:19.337Z,2.40
2023-02-09T13:47:49.657Z,1.53
2023-02-09T13:50:23.010Z,2.40
2023-02-09T13:52:52.797Z,2.17
2023-02-09T13:55:28.147Z,2.20
2023-02-09T13:58:07.674Z,2.47
2023-02-09T14:00:44.403Z,2.33
2023-02-09T14:03:21.187Z,2.80
2023-02-09T14:06:01.058Z,2.30
2023-02-09T14:08:33.623Z,1.60
2023-02-09T14:11:42.012Z,2.00
2023-02-09T14:14:21.939Z,1.60
2023-02-09T14:17:25.200Z,1.90
2023-02-09T14:19:50.658Z,2.10
2023-02-09T14:22:39.958Z,2.05
2023-02-09T14:25:19.034Z,2.57
2023-02-09T14:27:50.038Z,1.83
2023-02-09T14:30:24.074Z,1.73
2023-02-09T14:32:58.972Z,1.50
2023-02-09T14:35:33.575Z,1.93
2023-02-09T14:38:04.731Z,1.80
2023-02-09T14:40:37.251Z,1.70
2023-02-09T14:43:18.914Z,1.80
2023-02-09T14:45:52.629Z,2.00
2023-02-09T14:48:29.227Z,3.47
2023-02-09T14:51:03.329Z,6.50
2023-02-09T14:53:34.785Z,2.80
2023-02-09T14:56:04.216Z,1.90
2023-02-09T14:58:35.407Z,1.50
2023-02-09T15:01:05.245Z,2.37
2023-02-09T15:03:34.770Z,2.97
2023-02-09T15:06:06.725Z,2.13
2023-02-09T15:08:39.260Z,2.53
2023-02-09T15:11:30.597Z,2.47
2023-02-09T15:14:06.333Z,3.47
2023-02-09T15:16:35.881Z,3.73
2023-02-09T15:19:06.920Z,2.10
2023-02-09T15:21:36.446Z,2.93
2023-02-09T15:24:06.009Z,2.53
2023-02-09T15:26:38.256Z,1.73
2023-02-09T15:29:17.295Z,1.50
2023-02-09T15:31:46.843Z,2.70
2023-02-09T15:34:16.304Z,1.40
2023-02-09T15:36:46.791Z,1.40
2023-02-09T15:39:27.506Z,2.33
2023-02-09T15:42:14.742Z,2.03
2023-02-09T15:45:02.198Z,2.87
2023-02-09T15:47:50.064Z,2.33
2023-02-09T15:50:19.637Z,1.77
2023-02-09T15:52:49.096Z,2.23
2023-02-09T15:55:23.723Z,2.10
2023-02-09T15:57:55.134Z,2.83
2023-02-09T16:00:30.547Z,2.70
2023-02-09T16:03:02.249Z,1.80
2023-02-09T16:05:32.272Z,2.47
2023-02-09T16:08:01.882Z,2.40
2023-02-09T16:10:31.868Z,2.27
2023-02-09T16:13:01.310Z,1.50
2023-02-09T16:15:30.743Z,1.83
2023-02-09T16:18:00.190Z,1.90
2023-02-09T16:20:31.303Z,2.07
2023-02-09T16:23:11.724Z,1.60
2023-02-09T16:25:34.327Z,2.60
2023-02-09T16:28:03.908Z,2.40
2023-02-09T16:30:35.618Z,1.57
2023-02-09T16:33:05.730Z,1.50
2023-02-09T16:35:35.251Z,1.27
2023-02-09T16:38:06.227Z,1.23
2023-02-09T16:40:35.810Z,2.80
2023-02-09T16:43:06.689Z,2.43
2023-02-09T16:45:39.491Z,2.10
2023-02-09T16:48:30.496Z,1.57
2023-02-09T16:51:00.216Z,2.23
2023-02-09T16:53:40.799Z,1.67
2023-02-09T16:56:15.375Z,1.73
2023-02-09T16:58:45.614Z,1.87
2023-02-09T17:01:24.266Z,1.40
2023-02-09T17:03:57.261Z,2.80
2023-02-09T17:06:30.768Z,2.33
2023-02-09T17:09:00.376Z,2.73
2023-02-09T17:11:30.280Z,3.00
2023-02-09T17:13:59.740Z,1.70
2023-02-09T17:16:33.755Z,1.70
2023-02-09T17:19:06.808Z,1.97
2023-02-09T17:21:40.273Z,1.93
2023-02-09T17:24:18.801Z,1.73
2023-02-09T17:26:48.863Z,1.63
2023-02-09T17:29:19.970Z,1.90
2023-02-09T17:31:53.684Z,2.33
2023-02-09T17:34:21.981Z,2.67
2023-02-09T17:36:51.389Z,2.47
2023-02-09T17:39:20.901Z,3.00
2023-02-09T17:41:50.622Z,1.80
2023-02-09T17:44:44.990Z,2.03
2023-02-09T17:46:57.389Z,1.50
2023-02-09T17:49:26.961Z,1.10
2023-02-09T17:51:56.389Z,1.73
2023-02-09T17:54:27.925Z,2.03
2023-02-09T17:56:57.358Z,2.10
2023-02-09T17:59:26.819Z,2.30
2023-02-09T18:01:56.271Z,2.10
2023-02-09T18:04:28.518Z,2.07
2023-02-09T18:06:58.425Z,2.20
2023-02-09T18:09:28.449Z,1.90
2023-02-09T18:12:05.492Z,1.87
2023-02-09T18:14:36.822Z,2.10
2023-02-09T18:17:06.731Z,1.50
2023-02-09T18:19:36.158Z,2.70
2023-02-09T18:22:05.855Z,2.63
2023-02-09T18:24:36.736Z,3.13
2023-02-09T18:27:08.156Z,2.83
2023-02-09T18:29:37.594Z,2.70
2023-02-09T18:32:07.171Z,2.23
2023-02-09T18:34:37.985Z,3.20
2023-02-09T18:37:07.648Z,2.67
2023-02-09T18:39:38.758Z,2.43
2023-02-09T18:42:08.154Z,2.70
2023-02-09T18:44:37.604Z,2.07
2023-02-09T18:47:07.049Z,1.90
2023-02-09T18:49:36.477Z,1.80
2023-02-09T18:52:06.252Z,1.73
2023-02-09T18:54:36.234Z,1.93
2023-02-09T18:57:05.650Z,2.00
2023-02-09T18:59:36.168Z,2.00
2023-02-09T19:02:05.614Z,1.70
2023-02-09T19:04:35.163Z,1.50
2023-02-09T19:07:06.275Z,1.50
2023-02-09T19:09:35.706Z,2.20
2023-02-09T19:12:05.874Z,1.97
2023-02-09T19:14:42.134Z,1.70
2023-02-09T19:17:16.164Z,1.63
2023-02-09T19:19:46.502Z,2.10
2023-02-09T19:22:22.028Z,1.90
2023-02-09T19:24:53.314Z,2.10
2023-02-09T19:27:23.792Z,1.63
2023-02-09T19:29:58.719Z,2.03
2023-02-09T19:32:28.888Z,1.60
2023-02-09T19:34:58.322Z,1.70
2023-02-09T19:37:27.837Z,2.00
2023-02-09T19:40:07.863Z,2.10
2023-02-09T19:42:37.368Z,2.43
2023-02-09T19:45:07.100Z,1.60
2023-02-09T19:47:37.846Z,1.63
2023-02-09T19:50:07.449Z,1.70
2023-02-09T19:52:38.278Z,1.40
2023-02-09T19:55:08.221Z,1.40
2023-02-09T19:57:37.631Z,1.90
2023-02-09T20:00:08.678Z,1.90
2023-02-09T20:02:38.161Z,1.30
2023-02-09T20:05:08.699Z,1.20
2023-02-09T20:07:38.289Z,1.50
2023-02-09T20:10:08.234Z,1.50
2023-02-09T20:12:37.677Z,1.27
2023-02-09T20:15:07.636Z,1.73
2023-02-09T20:17:37.076Z,1.40
2023-02-09T20:20:07.063Z,1.70
2023-02-09T20:22:37.054Z,1.30
2023-02-09T20:25:06.991Z,1.63
2023-02-09T20:27:36.420Z,1.50
2023-02-09T20:30:08.236Z,1.80
2023-02-09T20:32:37.938Z,1.50
2023-02-09T20:35:08.371Z,2.13
2023-02-09T20:37:37.797Z,1.70
2023-02-09T20:40:10.388Z,1.80
2023-02-09T20:42:58.589Z,1.47
2023-02-09T20:45:45.899Z,2.33
2023-02-09T20:48:15.427Z,1.70
2023-02-09T20:50:45.598Z,1.30
2023-02-09T20:53:15.147Z,1.20
2023-02-09T20:55:44.573Z,1.23
2023-02-09T20:58:14.628Z,1.27
2023-02-09T21:00:44.580Z,2.13
2023-02-09T21:03:14.380Z,1.53
2023-02-09T21:05:43.817Z,2.60
2023-02-09T21:08:13.267Z,1.80
2023-02-09T21:10:42.699Z,1.50
2023-02-09T21:13:12.733Z,1.53
2023-02-09T21:15:43.275Z,1.53
2023-02-09T21:18:12.897Z,1.63
2023-02-09T21:20:42.333Z,1.57
2023-02-09T21:23:13.013Z,1.53
2023-02-09T21:25:42.627Z,1.60
2023-02-09T21:28:13.323Z,1.57
2023-02-09T21:30:46.609Z,1.87
2023-02-09T21:33:16.218Z,1.50
2023-02-09T21:35:45.661Z,1.90
2023-02-09T21:38:15.103Z,1.73
2023-02-09T21:40:44.599Z,2.10
2023-02-09T21:43:14.501Z,1.80
2023-02-09T21:45:44.225Z,3.03
2023-02-09T21:48:13.662Z,2.43
2023-02-09T21:50:43.111Z,2.10
2023-02-09T21:53:12.556Z,2.27
2023-02-09T21:55:41.976Z,1.83
2023-02-09T21:58:11.912Z,2.50
2023-02-09T22:00:41.336Z,2.40
2023-02-09T22:03:11.066Z,2.03
2023-02-09T22:05:40.497Z,2.23
2023-02-09T22:08:09.925Z,2.17
2023-02-09T22:10:39.397Z,1.63
2023-02-09T22:13:09.661Z,1.63
2023-02-09T22:15:44.030Z,1.77
2023-02-09T22:18:14.155Z,2.07
2023-02-09T22:20:46.933Z,2.23
2023-02-09T22:23:16.861Z,1.57
2023-02-09T22:25:46.449Z,2.40
2023-02-09T22:28:15.902Z,2.00
2023-02-09T22:30:45.688Z,1.77
2023-02-09T22:33:15.695Z,1.97
2023-02-09T22:35:45.491Z,2.20
2023-02-09T22:38:15.532Z,1.70
2023-02-09T22:40:44.977Z,1.50
2023-02-09T22:43:14.399Z,1.67
2023-02-09T22:45:43.905Z,1.73
2023-02-09T22:48:13.342Z,1.50
2023-02-09T22:50:42.801Z,1.57
2023-02-09T22:53:12.223Z,1.90
2023-02-09T22:55:41.678Z,1.60
2023-02-09T22:58:11.106Z,2.00
2023-02-09T23:00:40.551Z,1.93
2023-02-09T23:03:09.983Z,2.27
2023-02-09T23:05:39.412Z,2.47
2023-02-09T23:08:08.845Z,1.77
2023-02-09T23:10:38.293Z,1.83
2023-02-09T23:13:07.718Z,2.27
2023-02-09T23:15:37.239Z,1.90
2023-02-09T23:18:06.741Z,2.13
2023-02-09T23:20:36.184Z,2.02
2023-02-09T23:23:06.629Z,2.23
2023-02-09T23:25:36.166Z,1.80
2023-02-09T23:28:05.656Z,1.70
2023-02-09T23:30:36.277Z,1.60
2023-02-09T23:33:05.716Z,2.10
2023-02-09T23:35:36.718Z,2.47
2023-02-09T23:38:06.151Z,1.90
2023-02-09T23:40:37.473Z,1.63
2023-02-09T23:43:06.908Z,2.30
2023-02-09T23:45:36.350Z,2.20
2023-02-09T23:48:06.022Z,1.50
2023-02-09T23:50:35.446Z,1.50
2023-02-09T23:53:04.884Z,1.50
2023-02-09T23:55:34.338Z,1.60
2023-02-09T23:58:03.769Z,1.90
